sensor_id;sensor_type;location;lat;lon;timestamp;temperature;humidity
47434;SHT31;33184;48.774;8.918;2022-08-20T00:04:01;19.60;73.25
47434;SHT31;33184;48.774;8.918;2022-08-20T00:09:21;19.50;73.48
47434;SHT31;33184;48.774;8.918;2022-08-20T00:14:42;19.45;74.15
47434;SHT31;33184;48.774;8.918;2022-08-20T00:20:04;19.43;74.53
47434;SHT31;33184;48.774;8.918;2022-08-20T00:25:27;19.48;74.18
47434;SHT31;33184;48.774;8.918;2022-08-20T00:30:48;19.50;74.20
47434;SHT31;33184;48.774;8.918;2022-08-20T00:36:09;19.52;74.22
47434;SHT31;33184;48.774;8.918;2022-08-20T00:41:31;19.52;74.31
47434;SHT31;33184;48.774;8.918;2022-08-20T00:46:52;19.50;74.49
47434;SHT31;33184;48.774;8.918;2022-08-20T00:52:17;19.43;74.41
47434;SHT31;33184;48.774;8.918;2022-08-20T00:57:42;19.36;74.59
47434;SHT31;33184;48.774;8.918;2022-08-20T01:03:06;19.35;74.84
47434;SHT31;33184;48.774;8.918;2022-08-20T01:08:29;19.34;75.17
47434;SHT31;33184;48.774;8.918;2022-08-20T01:13:49;19.35;75.05
47434;SHT31;33184;48.774;8.918;2022-08-20T01:19:12;19.38;75.29
47434;SHT31;33184;48.774;8.918;2022-08-20T01:24:39;19.42;75.22
47434;SHT31;33184;48.774;8.918;2022-08-20T01:30:03;19.46;75.05
47434;SHT31;33184;48.774;8.918;2022-08-20T01:35:24;19.48;74.68
47434;SHT31;33184;48.774;8.918;2022-08-20T01:46:16;19.53;75.11
47434;SHT31;33184;48.774;8.918;2022-08-20T01:51:37;19.48;75.35
47434;SHT31;33184;48.774;8.918;2022-08-20T01:57:14;19.41;75.44
47434;SHT31;33184;48.774;8.918;2022-08-20T02:02:35;19.39;75.36
47434;SHT31;33184;48.774;8.918;2022-08-20T02:07:56;19.38;75.53
47434;SHT31;33184;48.774;8.918;2022-08-20T02:13:17;19.35;75.90
47434;SHT31;33184;48.774;8.918;2022-08-20T02:18:37;19.28;75.85
47434;SHT31;33184;48.774;8.918;2022-08-20T02:24:00;19.22;75.86
47434;SHT31;33184;48.774;8.918;2022-08-20T02:29:20;19.22;76.66
47434;SHT31;33184;48.774;8.918;2022-08-20T02:34:41;19.12;76.50
47434;SHT31;33184;48.774;8.918;2022-08-20T02:40:05;19.09;76.70
47434;SHT31;33184;48.774;8.918;2022-08-20T02:45:29;19.02;76.85
47434;SHT31;33184;48.774;8.918;2022-08-20T02:50:56;18.94;77.61
47434;SHT31;33184;48.774;8.918;2022-08-20T02:56:17;18.85;77.82
47434;SHT31;33184;48.774;8.918;2022-08-20T03:01:38;18.81;78.24
47434;SHT31;33184;48.774;8.918;2022-08-20T03:06:59;18.78;78.16
47434;SHT31;33184;48.774;8.918;2022-08-20T03:12:20;18.77;78.79
47434;SHT31;33184;48.774;8.918;2022-08-20T03:17:40;18.74;78.87
47434;SHT31;33184;48.774;8.918;2022-08-20T03:23:01;18.74;78.97
47434;SHT31;33184;48.774;8.918;2022-08-20T03:28:23;18.73;79.11
47434;SHT31;33184;48.774;8.918;2022-08-20T03:33:43;18.74;79.32
47434;SHT31;33184;48.774;8.918;2022-08-20T03:39:07;18.74;79.08
47434;SHT31;33184;48.774;8.918;2022-08-20T03:44:34;18.75;79.22
47434;SHT31;33184;48.774;8.918;2022-08-20T03:49:59;18.77;79.22
47434;SHT31;33184;48.774;8.918;2022-08-20T03:55:21;18.74;79.35
47434;SHT31;33184;48.774;8.918;2022-08-20T04:00:46;18.71;79.53
47434;SHT31;33184;48.774;8.918;2022-08-20T04:06:07;18.71;79.44
47434;SHT31;33184;48.774;8.918;2022-08-20T04:11:28;18.70;79.74
47434;SHT31;33184;48.774;8.918;2022-08-20T04:16:48;18.68;79.94
47434;SHT31;33184;48.774;8.918;2022-08-20T04:22:09;18.70;79.93
47434;SHT31;33184;48.774;8.918;2022-08-20T04:27:35;18.68;80.22
47434;SHT31;33184;48.774;8.918;2022-08-20T04:32:55;18.70;80.38
47434;SHT31;33184;48.774;8.918;2022-08-20T04:38:17;18.77;80.49
47434;SHT31;33184;48.774;8.918;2022-08-20T04:43:38;18.75;80.04
47434;SHT31;33184;48.774;8.918;2022-08-20T04:48:59;18.78;80.12
47434;SHT31;33184;48.774;8.918;2022-08-20T04:54:23;18.75;80.51
47434;SHT31;33184;48.774;8.918;2022-08-20T04:59:43;18.74;80.71
47434;SHT31;33184;48.774;8.918;2022-08-20T05:05:05;18.73;80.73
47434;SHT31;33184;48.774;8.918;2022-08-20T05:10:28;18.73;80.86
47434;SHT31;33184;48.774;8.918;2022-08-20T05:15:49;18.71;80.85
47434;SHT31;33184;48.774;8.918;2022-08-20T05:21:10;18.70;81.01
47434;SHT31;33184;48.774;8.918;2022-08-20T05:26:31;18.74;80.97
47434;SHT31;33184;48.774;8.918;2022-08-20T05:31:53;18.81;80.59
47434;SHT31;33184;48.774;8.918;2022-08-20T05:37:15;18.89;80.63
47434;SHT31;33184;48.774;8.918;2022-08-20T05:42:37;19.04;80.14
47434;SHT31;33184;48.774;8.918;2022-08-20T05:48:11;19.08;79.89
47434;SHT31;33184;48.774;8.918;2022-08-20T05:53:31;19.22;79.61
47434;SHT31;33184;48.774;8.918;2022-08-20T05:58:53;19.32;79.38
47434;SHT31;33184;48.774;8.918;2022-08-20T06:04:13;19.29;79.47
47434;SHT31;33184;48.774;8.918;2022-08-20T06:09:48;19.24;79.75
47434;SHT31;33184;48.774;8.918;2022-08-20T06:15:12;19.26;79.82
47434;SHT31;33184;48.774;8.918;2022-08-20T06:20:34;19.28;79.81
47434;SHT31;33184;48.774;8.918;2022-08-20T06:25:54;19.31;79.72
47434;SHT31;33184;48.774;8.918;2022-08-20T06:31:15;19.42;79.22
47434;SHT31;33184;48.774;8.918;2022-08-20T06:36:35;19.53;78.86
47434;SHT31;33184;48.774;8.918;2022-08-20T06:41:56;19.65;78.48
47434;SHT31;33184;48.774;8.918;2022-08-20T06:47:19;19.77;78.19
47434;SHT31;33184;48.774;8.918;2022-08-20T06:52:40;19.91;77.55
47434;SHT31;33184;48.774;8.918;2022-08-20T06:58:04;20.04;77.41
47434;SHT31;33184;48.774;8.918;2022-08-20T07:03:25;20.17;77.12
47434;SHT31;33184;48.774;8.918;2022-08-20T07:08:46;20.31;76.12
47434;SHT31;33184;48.774;8.918;2022-08-20T07:14:06;20.37;75.48
47434;SHT31;33184;48.774;8.918;2022-08-20T07:19:27;20.37;75.22
47434;SHT31;33184;48.774;8.918;2022-08-20T07:24:48;20.51;74.95
47434;SHT31;33184;48.774;8.918;2022-08-20T07:30:15;20.62;74.36
47434;SHT31;33184;48.774;8.918;2022-08-20T07:35:59;20.54;74.23
47434;SHT31;33184;48.774;8.918;2022-08-20T07:41:21;20.62;74.37
47434;SHT31;33184;48.774;8.918;2022-08-20T07:46:41;20.82;73.89
47434;SHT31;33184;48.774;8.918;2022-08-20T07:52:03;20.89;73.28
47434;SHT31;33184;48.774;8.918;2022-08-20T07:57:24;20.89;72.79
47434;SHT31;33184;48.774;8.918;2022-08-20T08:02:44;20.98;72.91
47434;SHT31;33184;48.774;8.918;2022-08-20T08:08:11;21.09;72.55
47434;SHT31;33184;48.774;8.918;2022-08-20T08:13:36;21.16;72.00
47434;SHT31;33184;48.774;8.918;2022-08-20T08:18:57;21.33;71.82
47434;SHT31;33184;48.774;8.918;2022-08-20T08:24:19;21.35;71.36
47434;SHT31;33184;48.774;8.918;2022-08-20T08:29:39;21.49;70.94
47434;SHT31;33184;48.774;8.918;2022-08-20T08:35:03;21.36;70.14
47434;SHT31;33184;48.774;8.918;2022-08-20T08:40:25;21.51;69.66
47434;SHT31;33184;48.774;8.918;2022-08-20T08:46:22;21.54;69.16
47434;SHT31;33184;48.774;8.918;2022-08-20T08:51:53;21.61;68.73
47434;SHT31;33184;48.774;8.918;2022-08-20T08:57:17;21.68;68.03
47434;SHT31;33184;48.774;8.918;2022-08-20T09:02:38;21.70;67.66
47434;SHT31;33184;48.774;8.918;2022-08-20T09:08:01;21.68;67.92
47434;SHT31;33184;48.774;8.918;2022-08-20T09:13:22;21.81;67.39
47434;SHT31;33184;48.774;8.918;2022-08-20T09:18:43;22.01;67.45
47434;SHT31;33184;48.774;8.918;2022-08-20T09:24:03;22.35;66.62
47434;SHT31;33184;48.774;8.918;2022-08-20T09:29:24;22.32;66.18
47434;SHT31;33184;48.774;8.918;2022-08-20T09:34:47;22.35;66.41
47434;SHT31;33184;48.774;8.918;2022-08-20T09:40:11;22.38;66.16
47434;SHT31;33184;48.774;8.918;2022-08-20T09:45:33;22.28;66.74
47434;SHT31;33184;48.774;8.918;2022-08-20T09:50:54;22.12;68.45
47434;SHT31;33184;48.774;8.918;2022-08-20T09:56:15;22.15;68.72
47434;SHT31;33184;48.774;8.918;2022-08-20T10:01:36;22.04;70.13
47434;SHT31;33184;48.774;8.918;2022-08-20T10:06:56;21.77;72.49
47434;SHT31;33184;48.774;8.918;2022-08-20T10:12:17;21.09;77.11
47434;SHT31;33184;48.774;8.918;2022-08-20T10:17:39;20.17;82.03
47434;SHT31;33184;48.774;8.918;2022-08-20T10:23:00;19.79;83.71
47434;SHT31;33184;48.774;8.918;2022-08-20T10:28:22;19.74;82.38
47434;SHT31;33184;48.774;8.918;2022-08-20T10:33:42;19.87;82.89
47434;SHT31;33184;48.774;8.918;2022-08-20T10:39:03;20.06;82.18
47434;SHT31;33184;48.774;8.918;2022-08-20T10:44:24;20.27;81.49
47434;SHT31;33184;48.774;8.918;2022-08-20T10:49:45;20.49;80.76
47434;SHT31;33184;48.774;8.918;2022-08-20T10:55:07;20.84;80.60
47434;SHT31;33184;48.774;8.918;2022-08-20T11:00:28;21.17;80.01
47434;SHT31;33184;48.774;8.918;2022-08-20T11:05:49;21.20;77.97
47434;SHT31;33184;48.774;8.918;2022-08-20T11:11:09;21.54;77.91
47434;SHT31;33184;48.774;8.918;2022-08-20T11:16:30;21.73;77.45
47434;SHT31;33184;48.774;8.918;2022-08-20T11:21:50;21.68;72.30
47434;SHT31;33184;48.774;8.918;2022-08-20T11:27:18;21.67;73.98
47434;SHT31;33184;48.774;8.918;2022-08-20T11:32:41;21.80;73.69
47434;SHT31;33184;48.774;8.918;2022-08-20T11:38:02;22.31;71.69
47434;SHT31;33184;48.774;8.918;2022-08-20T11:43:23;22.93;69.12
47434;SHT31;33184;48.774;8.918;2022-08-20T11:48:44;22.56;69.41
47434;SHT31;33184;48.774;8.918;2022-08-20T11:54:04;22.58;66.95
47434;SHT31;33184;48.774;8.918;2022-08-20T11:59:25;22.62;66.90
47434;SHT31;33184;48.774;8.918;2022-08-20T12:04:47;22.96;66.02
47434;SHT31;33184;48.774;8.918;2022-08-20T12:10:09;23.36;64.89
47434;SHT31;33184;48.774;8.918;2022-08-20T12:15:30;23.10;65.57
47434;SHT31;33184;48.774;8.918;2022-08-20T12:20:51;22.90;64.82
47434;SHT31;33184;48.774;8.918;2022-08-20T12:26:12;22.99;64.90
47434;SHT31;33184;48.774;8.918;2022-08-20T12:31:33;22.82;64.88
47434;SHT31;33184;48.774;8.918;2022-08-20T12:37:06;23.03;63.02
47434;SHT31;33184;48.774;8.918;2022-08-20T12:42:27;23.20;62.23
47434;SHT31;33184;48.774;8.918;2022-08-20T12:47:51;23.36;61.23
47434;SHT31;33184;48.774;8.918;2022-08-20T12:53:11;23.47;60.29
47434;SHT31;33184;48.774;8.918;2022-08-20T12:58:32;24.19;58.72
47434;SHT31;33184;48.774;8.918;2022-08-20T13:03:53;24.23;59.18
47434;SHT31;33184;48.774;8.918;2022-08-20T13:09:15;26.19;52.86
47434;SHT31;33184;48.774;8.918;2022-08-20T13:14:36;26.84;49.05
47434;SHT31;33184;48.774;8.918;2022-08-20T13:19:57;26.41;49.73
47434;SHT31;33184;48.774;8.918;2022-08-20T13:25:19;26.57;49.13
47434;SHT31;33184;48.774;8.918;2022-08-20T13:30:39;27.92;47.92
47434;SHT31;33184;48.774;8.918;2022-08-20T13:36:00;28.21;44.47
47434;SHT31;33184;48.774;8.918;2022-08-20T13:41:21;26.43;48.02
47434;SHT31;33184;48.774;8.918;2022-08-20T13:46:42;25.37;51.01
47434;SHT31;33184;48.774;8.918;2022-08-20T13:52:02;25.71;49.21
47434;SHT31;33184;48.774;8.918;2022-08-20T13:57:24;26.36;47.03
47434;SHT31;33184;48.774;8.918;2022-08-20T14:02:45;27.29;42.42
47434;SHT31;33184;48.774;8.918;2022-08-20T14:08:12;28.18;39.96
47434;SHT31;33184;48.774;8.918;2022-08-20T14:13:33;27.96;39.66
47434;SHT31;33184;48.774;8.918;2022-08-20T14:18:53;27.69;39.94
47434;SHT31;33184;48.774;8.918;2022-08-20T14:24:15;25.88;44.39
47434;SHT31;33184;48.774;8.918;2022-08-20T14:29:38;27.16;42.14
47434;SHT31;33184;48.774;8.918;2022-08-20T14:34:59;28.69;39.55
47434;SHT31;33184;48.774;8.918;2022-08-20T14:40:23;29.19;37.39
47434;SHT31;33184;48.774;8.918;2022-08-20T14:45:44;28.20;38.66
47434;SHT31;33184;48.774;8.918;2022-08-20T14:51:04;27.92;39.18
47434;SHT31;33184;48.774;8.918;2022-08-20T14:56:28;28.47;39.54
47434;SHT31;33184;48.774;8.918;2022-08-20T15:01:49;28.47;37.06
47434;SHT31;33184;48.774;8.918;2022-08-20T15:07:28;28.00;38.25
47434;SHT31;33184;48.774;8.918;2022-08-20T15:12:50;27.93;38.30
47434;SHT31;33184;48.774;8.918;2022-08-20T15:18:11;28.33;37.71
47434;SHT31;33184;48.774;8.918;2022-08-20T15:23:31;27.86;39.46
47434;SHT31;33184;48.774;8.918;2022-08-20T15:28:52;28.14;38.09
47434;SHT31;33184;48.774;8.918;2022-08-20T15:34:12;28.38;37.95
47434;SHT31;33184;48.774;8.918;2022-08-20T15:39:33;28.03;38.59
47434;SHT31;33184;48.774;8.918;2022-08-20T15:44:54;28.26;36.67
47434;SHT31;33184;48.774;8.918;2022-08-20T15:50:33;27.25;37.69
47434;SHT31;33184;48.774;8.918;2022-08-20T15:56:49;27.02;38.18
47434;SHT31;33184;48.774;8.918;2022-08-20T16:02:02;27.04;38.07
47434;SHT31;33184;48.774;8.918;2022-08-20T16:12:51;27.38;36.58
47434;SHT31;33184;48.774;8.918;2022-08-20T16:18:25;27.10;37.26
47434;SHT31;33184;48.774;8.918;2022-08-20T16:23:47;27.25;37.03
47434;SHT31;33184;48.774;8.918;2022-08-20T16:29:32;27.11;37.49
47434;SHT31;33184;48.774;8.918;2022-08-20T16:34:57;26.76;37.73
47434;SHT31;33184;48.774;8.918;2022-08-20T16:45:56;26.44;37.74
47434;SHT31;33184;48.774;8.918;2022-08-20T16:51:25;26.29;38.49
47434;SHT31;33184;48.774;8.918;2022-08-20T16:56:49;26.05;38.40
47434;SHT31;33184;48.774;8.918;2022-08-20T17:02:18;25.58;39.50
47434;SHT31;33184;48.774;8.918;2022-08-20T17:07:44;25.20;39.43
47434;SHT31;33184;48.774;8.918;2022-08-20T17:18:35;24.71;40.39
47434;SHT31;33184;48.774;8.918;2022-08-20T17:24:00;24.57;41.02
47434;SHT31;33184;48.774;8.918;2022-08-20T17:29:25;24.45;41.24
47434;SHT31;33184;48.774;8.918;2022-08-20T17:34:52;24.35;40.99
47434;SHT31;33184;48.774;8.918;2022-08-20T17:45:42;24.01;41.11
47434;SHT31;33184;48.774;8.918;2022-08-20T17:51:16;23.85;41.40
47434;SHT31;33184;48.774;8.918;2022-08-20T17:56:39;23.73;41.37
47434;SHT31;33184;48.774;8.918;2022-08-20T18:02:02;23.62;41.42
47434;SHT31;33184;48.774;8.918;2022-08-20T18:13:14;23.44;42.14
47434;SHT31;33184;48.774;8.918;2022-08-20T18:18:52;23.24;42.53
47434;SHT31;33184;48.774;8.918;2022-08-20T18:24:23;23.24;42.93
47434;SHT31;33184;48.774;8.918;2022-08-20T18:29:53;23.16;43.44
47434;SHT31;33184;48.774;8.918;2022-08-20T18:35:30;23.03;43.79
47434;SHT31;33184;48.774;8.918;2022-08-20T18:40:51;22.89;44.37
47434;SHT31;33184;48.774;8.918;2022-08-20T18:46:19;22.76;45.05
47434;SHT31;33184;48.774;8.918;2022-08-20T18:51:48;22.48;45.36
47434;SHT31;33184;48.774;8.918;2022-08-20T18:57:24;22.31;45.94
47434;SHT31;33184;48.774;8.918;2022-08-20T19:02:59;22.14;47.01
47434;SHT31;33184;48.774;8.918;2022-08-20T19:08:39;22.14;46.94
47434;SHT31;33184;48.774;8.918;2022-08-20T19:19:38;21.84;48.09
47434;SHT31;33184;48.774;8.918;2022-08-20T19:24:58;21.61;48.86
47434;SHT31;33184;48.774;8.918;2022-08-20T19:30:33;21.42;49.50
47434;SHT31;33184;48.774;8.918;2022-08-20T19:35:54;21.24;50.17
47434;SHT31;33184;48.774;8.918;2022-08-20T19:41:38;21.03;50.86
47434;SHT31;33184;48.774;8.918;2022-08-20T19:47:02;20.92;51.23
47434;SHT31;33184;48.774;8.918;2022-08-20T19:52:40;20.69;51.81
47434;SHT31;33184;48.774;8.918;2022-08-20T19:58:15;20.59;52.17
47434;SHT31;33184;48.774;8.918;2022-08-20T20:03:37;20.40;52.70
47434;SHT31;33184;48.774;8.918;2022-08-20T20:09:12;20.24;53.25
47434;SHT31;33184;48.774;8.918;2022-08-20T20:14:36;20.22;53.54
47434;SHT31;33184;48.774;8.918;2022-08-20T20:20:00;20.14;54.12
47434;SHT31;33184;48.774;8.918;2022-08-20T20:30:53;20.07;53.83
47434;SHT31;33184;48.774;8.918;2022-08-20T20:36:17;20.09;53.77
47434;SHT31;33184;48.774;8.918;2022-08-20T20:41:38;20.01;54.24
47434;SHT31;33184;48.774;8.918;2022-08-20T20:47:02;19.86;54.43
47434;SHT31;33184;48.774;8.918;2022-08-20T20:52:30;19.73;55.44
47434;SHT31;33184;48.774;8.918;2022-08-20T20:57:52;19.59;55.44
47434;SHT31;33184;48.774;8.918;2022-08-20T21:03:13;19.45;55.92
47434;SHT31;33184;48.774;8.918;2022-08-20T21:08:34;19.43;56.22
47434;SHT31;33184;48.774;8.918;2022-08-20T21:13:55;19.32;57.12
47434;SHT31;33184;48.774;8.918;2022-08-20T21:19:16;19.11;57.51
47434;SHT31;33184;48.774;8.918;2022-08-20T21:24:37;18.94;58.05
47434;SHT31;33184;48.774;8.918;2022-08-20T21:29:57;18.85;58.17
47434;SHT31;33184;48.774;8.918;2022-08-20T21:35:19;18.78;58.69
47434;SHT31;33184;48.774;8.918;2022-08-20T21:40:40;18.71;59.19
47434;SHT31;33184;48.774;8.918;2022-08-20T21:46:02;18.54;59.75
47434;SHT31;33184;48.774;8.918;2022-08-20T21:51:23;18.39;59.72
47434;SHT31;33184;48.774;8.918;2022-08-20T21:56:55;18.30;60.20
47434;SHT31;33184;48.774;8.918;2022-08-20T22:02:18;18.13;60.68
47434;SHT31;33184;48.774;8.918;2022-08-20T22:07:40;18.00;61.69
47434;SHT31;33184;48.774;8.918;2022-08-20T22:13:01;17.86;62.01
47434;SHT31;33184;48.774;8.918;2022-08-20T22:18:22;17.78;61.59
47434;SHT31;33184;48.774;8.918;2022-08-20T22:23:44;17.75;62.06
47434;SHT31;33184;48.774;8.918;2022-08-20T22:29:06;17.74;62.00
47434;SHT31;33184;48.774;8.918;2022-08-20T22:34:30;17.64;62.11
47434;SHT31;33184;48.774;8.918;2022-08-20T22:39:51;17.54;62.42
47434;SHT31;33184;48.774;8.918;2022-08-20T22:45:12;17.49;62.44
47434;SHT31;33184;48.774;8.918;2022-08-20T22:50:32;17.34;64.01
47434;SHT31;33184;48.774;8.918;2022-08-20T22:55:54;17.13;64.75
47434;SHT31;33184;48.774;8.918;2022-08-20T23:01:14;17.07;65.06
47434;SHT31;33184;48.774;8.918;2022-08-20T23:06:35;17.03;64.86
47434;SHT31;33184;48.774;8.918;2022-08-20T23:11:56;16.96;64.86
47434;SHT31;33184;48.774;8.918;2022-08-20T23:17:17;16.82;64.66
47434;SHT31;33184;48.774;8.918;2022-08-20T23:22:38;16.76;64.89
47434;SHT31;33184;48.774;8.918;2022-08-20T23:27:59;16.56;66.79
47434;SHT31;33184;48.774;8.918;2022-08-20T23:33:19;16.43;67.05
47434;SHT31;33184;48.774;8.918;2022-08-20T23:38:40;16.35;66.49
47434;SHT31;33184;48.774;8.918;2022-08-20T23:44:01;16.31;67.44
47434;SHT31;33184;48.774;8.918;2022-08-20T23:49:21;16.35;66.53
47434;SHT31;33184;48.774;8.918;2022-08-20T23:54:42;16.33;66.22
